createdAt,value
2019-05-18T00:04:28.007Z,11.75
2019-05-18T00:09:49.541Z,14.75
2019-05-18T00:15:13.431Z,13.05
2019-05-18T00:20:35.170Z,13.62
2019-05-18T00:25:57.144Z,10.90
2019-05-18T00:31:18.418Z,11.63
2019-05-18T00:36:40.455Z,12.47
2019-05-18T00:42:01.943Z,11.50
2019-05-18T00:47:23.636Z,13.28
2019-05-18T00:52:45.334Z,11.85
2019-05-18T00:58:07.165Z,12.93
2019-05-18T01:03:28.795Z,11.90
2019-05-18T01:08:50.329Z,11.43
2019-05-18T01:14:12.096Z,11.95
2019-05-18T01:19:33.736Z,11.88
2019-05-18T01:24:55.189Z,11.73
2019-05-18T01:30:17.450Z,11.28
2019-05-18T01:35:39.117Z,14.25
2019-05-18T01:41:00.814Z,12.35
2019-05-18T01:46:22.401Z,13.62
2019-05-18T01:51:43.914Z,10.82
2019-05-18T01:57:06.484Z,10.50
2019-05-18T02:02:28.525Z,12.28
2019-05-18T02:07:50.156Z,12.67
2019-05-18T02:13:11.697Z,13.13
2019-05-18T02:18:33.309Z,12.90
2019-05-18T02:23:55.086Z,12.80
2019-05-18T02:29:16.909Z,10.65
2019-05-18T02:34:38.664Z,13.38
2019-05-18T02:40:00.632Z,11.70
2019-05-18T02:45:22.055Z,11.43
2019-05-18T02:50:43.701Z,11.12
2019-05-18T02:56:05.532Z,14.18
2019-05-18T03:01:27.294Z,12.63
2019-05-18T03:06:48.978Z,12.82
2019-05-18T03:12:10.535Z,10.60
2019-05-18T03:17:32.189Z,11.88
2019-05-18T03:22:53.671Z,12.75
2019-05-18T03:28:15.352Z,13.53
2019-05-18T03:33:37.067Z,11.85
2019-05-18T03:38:59.014Z,10.45
2019-05-18T03:44:20.846Z,10.23
2019-05-18T03:49:42.483Z,12.47
2019-05-18T03:55:05.106Z,11.93
2019-05-18T04:00:27.624Z,8.88
2019-05-18T04:05:49.443Z,10.18
2019-05-18T04:11:11.424Z,11.22
2019-05-18T04:16:32.860Z,13.80
2019-05-18T04:21:54.431Z,13.00
2019-05-18T04:27:15.905Z,15.08
2019-05-18T04:32:37.218Z,12.82
2019-05-18T04:37:59.193Z,13.25
2019-05-18T04:43:20.642Z,15.90
2019-05-18T04:48:42.494Z,15.68
2019-05-18T04:54:04.308Z,13.60
2019-05-18T04:59:25.871Z,15.03
2019-05-18T05:04:51.399Z,14.47
2019-05-18T05:10:11.426Z,16.05
2019-05-18T05:15:33.251Z,13.48
2019-05-18T05:20:54.601Z,14.87
2019-05-18T05:26:16.443Z,16.27
2019-05-18T05:31:38.065Z,14.28
2019-05-18T05:36:59.593Z,13.28
2019-05-18T05:42:21.460Z,14.53
2019-05-18T05:47:43.357Z,14.20
2019-05-18T05:53:04.956Z,15.50
2019-05-18T05:58:26.880Z,15.72
2019-05-18T06:03:48.771Z,15.20
2019-05-18T06:09:10.609Z,14.60
2019-05-18T06:14:32.149Z,11.95
2019-05-18T06:19:53.750Z,13.00
2019-05-18T06:25:15.641Z,13.25
2019-05-18T06:30:37.492Z,14.95
2019-05-18T06:35:59.324Z,12.03
2019-05-18T06:41:21.271Z,11.50
2019-05-18T06:46:43.136Z,14.43
2019-05-18T06:52:04.767Z,14.15
2019-05-18T06:57:27.791Z,15.03
2019-05-18T07:02:49.895Z,12.40
2019-05-18T07:08:11.680Z,11.22
2019-05-18T07:13:36.429Z,12.00
2019-05-18T07:18:59.125Z,10.00
2019-05-18T07:24:20.921Z,10.75
2019-05-18T07:29:42.476Z,10.65
2019-05-18T07:35:04.306Z,10.80
2019-05-18T07:40:26.293Z,10.23
2019-05-18T07:45:48.063Z,12.40
2019-05-18T07:51:09.811Z,11.60
2019-05-18T07:56:31.626Z,10.60
2019-05-18T08:01:53.555Z,11.75
2019-05-18T08:07:15.532Z,10.35
2019-05-18T08:12:37.169Z,11.38
2019-05-18T08:17:58.611Z,12.88
2019-05-18T08:23:20.545Z,10.05
2019-05-18T08:28:42.079Z,13.78
2019-05-18T08:34:04.027Z,10.82
2019-05-18T08:39:25.851Z,9.65
2019-05-18T08:44:47.019Z,10.18
2019-05-18T08:50:09.403Z,14.38
2019-05-18T08:55:31.461Z,8.55
2019-05-18T09:00:53.450Z,10.85
2019-05-18T09:06:15.632Z,12.23
2019-05-18T09:11:37.188Z,10.43
2019-05-18T09:16:59.188Z,12.47
2019-05-18T09:22:23.146Z,9.85
2019-05-18T09:27:44.487Z,8.90
2019-05-18T09:33:06.120Z,10.03
2019-05-18T09:38:28.017Z,11.00
2019-05-18T09:43:49.704Z,9.90
2019-05-18T09:49:11.554Z,11.85
2019-05-18T09:54:32.989Z,10.32
2019-05-18T09:59:55.026Z,9.38
2019-05-18T10:05:17.014Z,7.53
2019-05-18T10:10:37.839Z,11.15
2019-05-18T10:15:59.489Z,8.80
2019-05-18T10:21:22.149Z,14.10
2019-05-18T10:26:43.977Z,11.03
2019-05-18T10:32:05.873Z,8.65
2019-05-18T10:37:27.440Z,10.28
2019-05-18T10:42:49.055Z,10.60
2019-05-18T10:48:11.066Z,9.93
2019-05-18T10:53:32.475Z,11.40
2019-05-18T10:58:54.348Z,15.55
2019-05-18T11:04:16.394Z,12.05
2019-05-18T11:09:38.144Z,9.80
2019-05-18T11:14:59.906Z,10.05
2019-05-18T11:20:21.767Z,10.45
2019-05-18T11:25:43.272Z,6.12
2019-05-18T11:31:04.844Z,8.70
2019-05-18T11:36:26.607Z,10.90
2019-05-18T11:41:48.056Z,11.10
2019-05-18T11:47:09.634Z,8.78
2019-05-18T11:52:31.564Z,9.70
2019-05-18T11:57:53.220Z,11.57
2019-05-18T12:03:14.512Z,7.90
2019-05-18T12:08:36.404Z,9.03
2019-05-18T12:14:06.156Z,9.65
2019-05-18T12:19:28.051Z,11.08
2019-05-18T12:24:50.170Z,11.53
2019-05-18T12:30:12.662Z,11.55
2019-05-18T12:35:34.325Z,8.50
2019-05-18T12:40:55.968Z,9.75
2019-05-18T12:46:17.713Z,10.13
2019-05-18T12:51:39.176Z,8.80
2019-05-18T12:57:00.549Z,8.15
2019-05-18T13:02:22.109Z,6.28
2019-05-18T13:07:43.736Z,9.38
2019-05-18T13:13:05.422Z,9.13
2019-05-18T13:18:26.855Z,9.15
2019-05-18T13:23:48.705Z,14.05
2019-05-18T13:29:10.641Z,10.85
2019-05-18T13:34:32.301Z,9.73
2019-05-18T13:39:54.445Z,9.63
2019-05-18T13:45:16.636Z,11.00
2019-05-18T13:50:38.380Z,9.83
2019-05-18T13:56:01.531Z,8.78
2019-05-18T14:01:23.174Z,8.90
2019-05-18T14:06:45.022Z,9.75
2019-05-18T14:12:06.646Z,9.33
2019-05-18T14:17:28.431Z,7.30
2019-05-18T14:22:50.170Z,5.03
2019-05-18T14:28:11.859Z,4.78
2019-05-18T14:33:33.882Z,8.10
2019-05-18T14:38:56.847Z,7.10
2019-05-18T14:44:18.974Z,8.95
2019-05-18T14:49:40.748Z,8.08
2019-05-18T14:55:02.358Z,9.58
2019-05-18T15:00:24.317Z,6.45
2019-05-18T15:05:46.665Z,13.48
2019-05-18T15:11:08.419Z,9.98
2019-05-18T15:16:30.256Z,10.23
2019-05-18T15:21:51.811Z,8.10
2019-05-18T15:27:13.636Z,9.20
2019-05-18T15:32:35.389Z,10.90
2019-05-18T15:37:57.052Z,11.48
2019-05-18T15:43:18.974Z,11.53
2019-05-18T15:48:40.941Z,8.98
2019-05-18T15:54:02.729Z,9.05
2019-05-18T15:59:24.538Z,11.00
2019-05-18T16:04:46.169Z,10.50
2019-05-18T16:10:09.049Z,12.80
2019-05-18T16:15:30.870Z,11.70
2019-05-18T16:20:57.443Z,14.50
2019-05-18T16:26:21.920Z,12.82
2019-05-18T16:31:43.243Z,17.07
2019-05-18T16:37:04.949Z,13.70
2019-05-18T16:42:26.689Z,14.63
2019-05-18T16:48:08.913Z,18.15
2019-05-18T16:53:30.548Z,15.08
2019-05-18T16:58:52.380Z,14.05
2019-05-18T17:04:14.044Z,16.42
2019-05-18T17:09:35.541Z,16.55
2019-05-18T17:14:57.305Z,18.32
2019-05-18T17:20:19.600Z,15.48
2019-05-18T17:25:41.104Z,15.80
2019-05-18T17:31:03.136Z,17.87
2019-05-18T17:36:24.701Z,16.20
2019-05-18T17:41:46.218Z,14.13
2019-05-18T17:47:07.878Z,16.42
2019-05-18T17:52:29.685Z,13.93
2019-05-18T17:57:51.587Z,14.60
2019-05-18T18:03:13.227Z,15.28
2019-05-18T18:08:35.416Z,16.12
2019-05-18T18:13:57.968Z,16.20
2019-05-18T18:19:19.764Z,14.90
2019-05-18T18:24:41.330Z,18.05
2019-05-18T18:30:03.394Z,16.48
2019-05-18T18:35:25.014Z,19.35
2019-05-18T18:40:46.796Z,17.70
2019-05-18T18:46:09.065Z,15.38
2019-05-18T18:51:30.933Z,16.20
2019-05-18T18:56:52.886Z,15.90
2019-05-18T19:02:14.400Z,15.70
2019-05-18T19:07:36.925Z,17.35
2019-05-18T19:12:58.606Z,16.25
2019-05-18T19:18:19.963Z,14.58
2019-05-18T19:23:41.806Z,15.58
2019-05-18T19:29:05.311Z,15.80
2019-05-18T19:34:26.719Z,17.10
2019-05-18T19:39:48.627Z,15.63
2019-05-18T19:45:10.843Z,16.82
2019-05-18T19:50:32.458Z,15.35
2019-05-18T19:55:54.155Z,17.25
2019-05-18T20:01:15.824Z,16.45
2019-05-18T20:06:37.760Z,15.80
2019-05-18T20:11:59.633Z,13.83
2019-05-18T20:17:21.440Z,13.28
2019-05-18T20:22:43.206Z,16.05
2019-05-18T20:28:05.135Z,16.12
2019-05-18T20:33:27.038Z,14.85
2019-05-18T20:38:49.015Z,13.55
2019-05-18T20:44:10.564Z,13.28
2019-05-18T20:49:32.228Z,13.75
2019-05-18T20:54:54.189Z,17.10
2019-05-18T21:00:16.022Z,14.63
2019-05-18T21:05:37.753Z,15.93
2019-05-18T21:10:59.298Z,15.20
2019-05-18T21:16:21.249Z,13.68
2019-05-18T21:21:43.085Z,18.25
2019-05-18T21:27:04.614Z,14.80
2019-05-18T21:32:26.152Z,15.30
2019-05-18T21:37:47.926Z,15.38
2019-05-18T21:43:09.980Z,15.35
2019-05-18T21:48:31.868Z,14.23
2019-05-18T21:53:53.426Z,12.23
2019-05-18T21:59:15.439Z,14.73
2019-05-18T22:04:37.056Z,14.63
2019-05-18T22:09:58.594Z,15.53
2019-05-18T22:15:20.701Z,15.53
2019-05-18T22:20:44.256Z,13.58
2019-05-18T22:26:06.522Z,14.53
2019-05-18T22:31:28.043Z,15.55
2019-05-18T22:36:49.575Z,15.03
2019-05-18T22:42:11.252Z,15.93
2019-05-18T22:47:32.914Z,14.80
2019-05-18T22:52:54.717Z,13.80
2019-05-18T22:58:16.569Z,15.30
2019-05-18T23:03:38.317Z,13.10
2019-05-18T23:08:59.760Z,13.32
2019-05-18T23:14:21.671Z,17.00
2019-05-18T23:19:43.253Z,13.30
2019-05-18T23:25:05.433Z,12.80
2019-05-18T23:30:26.911Z,13.60
2019-05-18T23:35:48.624Z,14.78
2019-05-18T23:41:10.394Z,12.40
2019-05-18T23:46:31.937Z,13.85
2019-05-18T23:51:53.465Z,14.53
2019-05-18T23:57:15.216Z,14.28
